Kaneohe Bay MCAS (Marion E. Carl Field) Airport Kaneohe US
ICAO: PHNG
IATA:
Category: Medium
Scheduled Services:

Elevation: 24 ft
TransAlt. 18000 ft.

Airport Communications:
APP/DEP:125
ATIS:28.45
CLNC DEL:29.47
CTAF:120.7
GND:38.28
PMSV METRO:34.46
PTD:30.72
TWR:120.7

PHNG Zoom In..

Runways:

(A) RW 04 length 7771 ft width 200 ft
---- / hdg 41

(B) RW 22 length 7771 ft width 200 ft
---- / hdg 221

Location; PHNG
Day. 22 / Time. 21.57 Zulu
* Altimeter: 30.06
* Temperature: 26° c. 78.8°f.
* Wind from: 060° Speed 13 kn.
Dewpoint: 19° c.
Visibility: 10 Statute Miles.
Clouds: Scattered 2800 ft.

PHNG 222157Z 06013KT 10SM SCT028 26/19 A3006 RMK AO2 SLP172 T02610189

Going to: --> -->


Wind From 060°
Speed 13 kn.

 
 
jpsmedia worldairports.se 2021   terms of use